createdAt,value
2018-07-01T00:01:21.495Z,99.90
2018-07-01T00:03:50.632Z,99.90
2018-07-01T00:06:19.765Z,99.90
2018-07-01T00:08:48.980Z,99.90
2018-07-01T00:11:18.255Z,99.90
2018-07-01T00:13:47.400Z,99.90
2018-07-01T00:16:16.523Z,99.90
2018-07-01T00:18:45.668Z,99.90
2018-07-01T00:21:14.808Z,99.90
2018-07-01T00:23:43.950Z,99.90
2018-07-01T00:26:13.081Z,99.90
2018-07-01T00:28:42.240Z,99.90
2018-07-01T00:31:11.373Z,99.90
2018-07-01T00:33:40.513Z,99.90
2018-07-01T00:36:09.637Z,99.90
2018-07-01T00:38:38.751Z,99.90
2018-07-01T00:41:08.325Z,99.90
2018-07-01T00:43:37.465Z,99.90
2018-07-01T00:46:06.628Z,99.90
2018-07-01T00:48:35.738Z,99.90
2018-07-01T00:51:04.864Z,99.90
2018-07-01T00:53:33.952Z,99.90
2018-07-01T00:56:03.056Z,99.90
2018-07-01T00:58:32.168Z,99.90
2018-07-01T01:01:01.309Z,99.90
2018-07-01T01:03:30.420Z,99.90
2018-07-01T01:05:59.524Z,99.90
2018-07-01T01:08:28.652Z,99.90
2018-07-01T01:10:57.785Z,99.90
2018-07-01T01:13:26.916Z,99.90
2018-07-01T01:15:56.033Z,99.90
2018-07-01T01:18:25.156Z,99.90
2018-07-01T01:20:54.300Z,99.90
2018-07-01T01:23:23.391Z,99.90
2018-07-01T01:25:52.507Z,99.90
2018-07-01T01:28:21.620Z,99.90
2018-07-01T01:30:50.729Z,99.90
2018-07-01T01:33:19.916Z,99.90
2018-07-01T01:35:49.073Z,99.90
2018-07-01T01:38:18.524Z,99.90
2018-07-01T01:40:55.800Z,99.90
2018-07-01T01:43:30.272Z,99.90
2018-07-01T01:46:32.233Z,99.90
2018-07-01T01:49:21.288Z,99.90
2018-07-01T01:51:54.918Z,99.90
2018-07-01T01:55:00.413Z,99.90
2018-07-01T01:57:41.775Z,99.90
2018-07-01T02:00:16.068Z,99.90
2018-07-01T02:02:51.825Z,99.90
2018-07-01T02:05:27.724Z,99.90
2018-07-01T02:08:02.986Z,99.90
2018-07-01T02:10:32.147Z,99.90
2018-07-01T02:13:01.304Z,99.90
2018-07-01T02:15:33.948Z,99.90
2018-07-01T02:18:03.110Z,99.90
2018-07-01T02:20:34.699Z,99.90
2018-07-01T02:23:09.947Z,99.90
2018-07-01T02:25:40.136Z,99.90
2018-07-01T02:28:09.284Z,99.90
2018-07-01T02:30:38.449Z,99.90
2018-07-01T02:33:07.576Z,99.90
2018-07-01T02:35:36.692Z,99.90
2018-07-01T02:38:05.850Z,99.90
2018-07-01T02:40:34.940Z,99.90
2018-07-01T02:43:04.119Z,99.90
2018-07-01T02:45:33.224Z,99.90
2018-07-01T02:48:02.345Z,99.90
2018-07-01T02:50:31.465Z,99.90
2018-07-01T02:53:00.568Z,99.90
2018-07-01T02:55:29.685Z,99.90
2018-07-01T02:57:58.834Z,99.90
2018-07-01T03:00:27.963Z,99.90
2018-07-01T03:03:03.484Z,99.90
2018-07-01T03:05:32.597Z,99.90
2018-07-01T03:08:01.769Z,99.90
2018-07-01T03:10:30.881Z,99.90
2018-07-01T03:13:00.000Z,99.90
2018-07-01T03:15:29.124Z,99.90
2018-07-01T03:17:58.279Z,99.90
2018-07-01T03:20:27.387Z,99.90
2018-07-01T03:22:56.517Z,99.90
2018-07-01T03:25:25.641Z,99.90
2018-07-01T03:27:54.792Z,99.90
2018-07-01T03:30:23.917Z,99.90
2018-07-01T03:32:53.061Z,99.90
2018-07-01T03:35:22.191Z,99.90
2018-07-01T03:37:51.319Z,99.90
2018-07-01T03:40:20.425Z,99.90
2018-07-01T03:42:49.598Z,99.90
2018-07-01T03:45:18.732Z,99.90
2018-07-01T03:47:47.896Z,99.90
2018-07-01T03:50:17.042Z,99.90
2018-07-01T03:52:46.187Z,99.90
2018-07-01T03:55:15.300Z,99.90
2018-07-01T03:57:44.493Z,99.90
2018-07-01T04:00:13.585Z,99.90
2018-07-01T04:02:42.720Z,99.90
2018-07-01T04:05:11.857Z,99.90
2018-07-01T04:07:40.998Z,99.90
2018-07-01T04:10:10.109Z,99.90
2018-07-01T04:12:39.280Z,99.90
2018-07-01T04:15:08.392Z,99.90
2018-07-01T04:17:37.576Z,99.90
2018-07-01T04:20:06.733Z,99.90
2018-07-01T04:22:35.899Z,99.90
2018-07-01T04:25:05.037Z,99.90
2018-07-01T04:27:34.180Z,99.90
2018-07-01T04:30:03.350Z,99.90
2018-07-01T04:32:32.524Z,99.90
2018-07-01T04:35:01.640Z,99.90
2018-07-01T04:37:30.798Z,99.90
2018-07-01T04:39:59.892Z,99.90
2018-07-01T04:42:29.037Z,99.90
2018-07-01T04:44:58.144Z,99.90
2018-07-01T04:47:27.311Z,99.90
2018-07-01T04:49:56.428Z,99.90
2018-07-01T04:52:25.586Z,99.90
2018-07-01T04:54:54.738Z,99.90
2018-07-01T04:57:23.872Z,99.90
2018-07-01T04:59:52.991Z,99.90
2018-07-01T05:02:22.170Z,99.90
2018-07-01T05:04:51.285Z,99.90
2018-07-01T05:07:20.429Z,99.90
2018-07-01T05:09:49.572Z,99.90
2018-07-01T05:12:18.727Z,99.90
2018-07-01T05:14:47.865Z,99.90
2018-07-01T05:17:17.001Z,99.90
2018-07-01T05:19:46.191Z,99.90
2018-07-01T05:22:15.301Z,99.90
2018-07-01T05:24:44.416Z,99.90
2018-07-01T05:27:13.652Z,99.90
2018-07-01T05:29:42.793Z,99.90
2018-07-01T05:32:11.901Z,99.90
2018-07-01T05:34:41.059Z,99.90
2018-07-01T05:37:10.200Z,99.90
2018-07-01T05:39:39.367Z,99.90
2018-07-01T05:42:08.485Z,99.90
2018-07-01T05:44:37.616Z,99.90
2018-07-01T05:47:06.777Z,99.90
2018-07-01T05:49:35.940Z,99.90
2018-07-01T05:52:05.084Z,99.90
2018-07-01T05:54:34.229Z,99.90
2018-07-01T05:57:03.357Z,99.90
2018-07-01T05:59:32.522Z,99.90
2018-07-01T06:02:01.808Z,99.90
2018-07-01T06:04:31.115Z,99.90
2018-07-01T06:07:00.253Z,99.90
2018-07-01T06:09:29.414Z,99.90
2018-07-01T06:11:58.572Z,99.90
2018-07-01T06:14:27.721Z,99.90
2018-07-01T06:16:56.871Z,99.90
2018-07-01T06:19:26.014Z,99.90
2018-07-01T06:21:55.841Z,99.90
2018-07-01T06:24:24.976Z,99.90
2018-07-01T06:26:54.135Z,99.90
2018-07-01T06:29:23.278Z,99.90
2018-07-01T06:31:52.424Z,99.90
2018-07-01T06:34:21.598Z,99.90
2018-07-01T06:36:50.715Z,99.90
2018-07-01T06:39:19.895Z,99.90
2018-07-01T06:41:49.038Z,99.90
2018-07-01T06:44:18.168Z,99.90
2018-07-01T06:46:47.307Z,99.90
2018-07-01T06:49:16.449Z,99.90
2018-07-01T06:51:45.572Z,99.90
2018-07-01T06:54:14.704Z,99.90
2018-07-01T06:56:43.852Z,99.90
2018-07-01T06:59:12.987Z,99.90
2018-07-01T07:01:42.092Z,99.90
2018-07-01T07:04:11.241Z,99.90
2018-07-01T07:06:40.393Z,99.90
2018-07-01T07:09:11.174Z,99.90
2018-07-01T07:11:40.342Z,99.90
2018-07-01T07:14:09.538Z,99.90
2018-07-01T07:16:38.681Z,99.90
2018-07-01T07:19:08.852Z,99.90
2018-07-01T07:21:38.055Z,99.90
2018-07-01T07:24:07.249Z,99.90
2018-07-01T07:26:36.362Z,99.90
2018-07-01T07:29:05.538Z,99.90
2018-07-01T07:31:34.648Z,99.90
2018-07-01T07:34:03.857Z,99.90
2018-07-01T07:36:32.964Z,99.90
2018-07-01T07:39:02.091Z,99.90
2018-07-01T07:41:31.192Z,99.90
2018-07-01T07:44:00.325Z,99.90
2018-07-01T07:46:29.419Z,99.90
2018-07-01T07:48:58.573Z,99.90
2018-07-01T07:51:27.676Z,99.90
2018-07-01T07:53:56.783Z,99.90
2018-07-01T07:56:25.904Z,99.60
2018-07-01T07:58:56.063Z,99.00
2018-07-01T08:01:25.175Z,97.60
2018-07-01T08:03:54.317Z,96.40
2018-07-01T08:06:23.519Z,96.00
2018-07-01T08:08:52.676Z,97.80
2018-07-01T08:11:21.800Z,97.30
2018-07-01T08:13:51.305Z,96.30
2018-07-01T08:16:20.433Z,96.00
2018-07-01T08:18:49.633Z,95.00
2018-07-01T08:21:18.937Z,96.20
2018-07-01T08:23:48.060Z,96.60
2018-07-01T08:26:17.196Z,96.10
2018-07-01T08:28:46.304Z,96.60
2018-07-01T08:31:15.461Z,96.00
2018-07-01T08:33:44.567Z,96.50
2018-07-01T08:36:13.751Z,97.30
2018-07-01T08:38:42.929Z,98.00
2018-07-01T08:41:12.076Z,96.90
2018-07-01T08:43:41.242Z,95.60
2018-07-01T08:46:10.480Z,96.10
2018-07-01T08:48:39.636Z,95.70
2018-07-01T08:51:08.796Z,96.40
2018-07-01T08:53:37.936Z,95.70
2018-07-01T08:56:07.162Z,95.30
2018-07-01T08:58:36.386Z,94.70
2018-07-01T09:01:05.541Z,95.80
2018-07-01T09:03:34.733Z,94.60
2018-07-01T09:06:03.981Z,94.00
2018-07-01T09:08:33.178Z,94.20
2018-07-01T09:11:03.288Z,94.80
2018-07-01T09:13:32.427Z,93.60
2018-07-01T09:16:01.562Z,94.20
2018-07-01T09:18:30.791Z,93.30
2018-07-01T09:21:00.113Z,93.00
2018-07-01T09:23:29.270Z,95.40
2018-07-01T09:25:58.472Z,93.90
2018-07-01T09:28:27.679Z,93.80
2018-07-01T09:30:56.940Z,93.80
2018-07-01T09:33:26.124Z,93.10
2018-07-01T09:35:55.319Z,92.60
2018-07-01T09:38:24.447Z,93.40
2018-07-01T09:40:53.591Z,95.60
2018-07-01T09:43:22.730Z,93.30
2018-07-01T09:45:51.914Z,93.90
2018-07-01T09:48:21.178Z,93.10
2018-07-01T09:50:50.384Z,93.20
2018-07-01T09:53:19.539Z,93.80
2018-07-01T09:55:48.665Z,92.80
2018-07-01T09:58:17.802Z,93.00
2018-07-01T10:00:46.944Z,93.50
2018-07-01T10:03:16.068Z,93.30
2018-07-01T10:05:45.221Z,92.90
2018-07-01T10:08:14.333Z,92.30
2018-07-01T10:10:43.496Z,92.30
2018-07-01T10:13:12.774Z,91.90
2018-07-01T10:15:41.950Z,92.20
2018-07-01T10:18:11.064Z,92.70
2018-07-01T10:20:40.312Z,92.60
2018-07-01T10:23:10.016Z,92.20
2018-07-01T10:25:39.189Z,91.90
2018-07-01T10:28:08.320Z,93.90
2018-07-01T10:30:37.491Z,93.10
2018-07-01T10:33:06.780Z,92.20
2018-07-01T10:35:35.911Z,91.10
2018-07-01T10:38:05.079Z,92.00
2018-07-01T10:40:34.181Z,92.30
2018-07-01T10:43:03.311Z,91.50
2018-07-01T10:45:32.655Z,93.20
2018-07-01T10:48:01.831Z,93.20
2018-07-01T10:50:31.948Z,93.80
2018-07-01T10:53:01.229Z,92.40
2018-07-01T10:55:30.378Z,92.00
2018-07-01T10:57:59.488Z,91.80
2018-07-01T11:00:28.646Z,93.50
2018-07-01T11:02:58.033Z,92.10
2018-07-01T11:05:27.237Z,90.80
2018-07-01T11:07:56.742Z,91.00
2018-07-01T11:10:25.996Z,91.30
2018-07-01T11:12:55.328Z,90.30
2018-07-01T11:15:24.479Z,91.00
2018-07-01T11:17:53.589Z,90.40
2018-07-01T11:20:22.844Z,91.40
2018-07-01T11:22:53.250Z,91.90
2018-07-01T11:25:22.407Z,90.80
2018-07-01T11:27:51.539Z,90.50
2018-07-01T11:30:20.664Z,90.80
2018-07-01T11:32:49.869Z,91.60
2018-07-01T11:35:18.983Z,90.30
2018-07-01T11:37:48.107Z,90.50
2018-07-01T11:40:17.240Z,88.80
2018-07-01T11:42:46.375Z,90.60
2018-07-01T11:45:15.504Z,91.10
2018-07-01T11:47:44.650Z,88.60
2018-07-01T11:50:13.853Z,92.00
2018-07-01T11:52:43.053Z,89.90
2018-07-01T11:55:12.188Z,90.30
2018-07-01T11:57:41.344Z,91.10
2018-07-01T12:00:10.477Z,90.20
2018-07-01T12:02:39.605Z,91.40
2018-07-01T12:05:16.657Z,90.60
2018-07-01T12:07:37.918Z,91.20
2018-07-01T12:10:07.161Z,91.50
2018-07-01T12:12:36.346Z,90.40
2018-07-01T12:15:05.535Z,89.80
2018-07-01T12:17:34.685Z,91.40
2018-07-01T12:20:04.670Z,91.10
2018-07-01T12:22:33.927Z,92.10
2018-07-01T12:25:03.043Z,90.60
2018-07-01T12:27:32.169Z,90.90
2018-07-01T12:30:01.337Z,90.90
2018-07-01T12:32:30.509Z,91.10
2018-07-01T12:35:00.652Z,91.20
2018-07-01T12:37:29.845Z,91.50
2018-07-01T12:39:58.983Z,91.90
2018-07-01T12:42:28.251Z,91.80
2018-07-01T12:44:57.324Z,90.90
2018-07-01T12:47:26.765Z,89.00
2018-07-01T12:49:55.905Z,91.40
2018-07-01T12:52:25.081Z,87.80
2018-07-01T12:54:54.208Z,90.40
2018-07-01T12:57:23.344Z,90.60
2018-07-01T12:59:52.476Z,90.50
2018-07-01T13:02:21.712Z,90.80
2018-07-01T13:04:50.815Z,90.70
2018-07-01T13:07:19.964Z,86.90
2018-07-01T13:09:49.081Z,86.70
2018-07-01T13:12:18.397Z,90.20
2018-07-01T13:14:47.412Z,92.10
2018-07-01T13:17:16.551Z,90.80
2018-07-01T13:19:45.666Z,90.00
2018-07-01T13:22:14.816Z,90.90
2018-07-01T13:24:43.971Z,90.50
2018-07-01T13:27:13.113Z,86.00
2018-07-01T13:29:42.273Z,87.00
2018-07-01T13:32:11.386Z,89.00
2018-07-01T13:34:40.536Z,90.30
2018-07-01T13:37:16.337Z,87.60
2018-07-01T13:39:45.459Z,87.40
2018-07-01T13:42:14.611Z,87.20
2018-07-01T13:44:43.788Z,88.50
2018-07-01T13:47:12.911Z,87.20
2018-07-01T13:49:42.078Z,87.20
2018-07-01T13:52:11.197Z,84.70
2018-07-01T13:54:40.349Z,88.50
2018-07-01T13:57:09.503Z,86.40
2018-07-01T13:59:38.605Z,85.90
2018-07-01T14:02:07.799Z,85.70
2018-07-01T14:04:36.953Z,82.20
2018-07-01T14:07:06.111Z,83.60
2018-07-01T14:09:35.227Z,83.90
2018-07-01T14:12:04.436Z,83.60
2018-07-01T14:14:33.533Z,84.80
2018-07-01T14:17:02.688Z,83.90
2018-07-01T14:19:31.808Z,84.50
2018-07-01T14:22:01.006Z,83.50
2018-07-01T14:24:30.145Z,85.10
2018-07-01T14:26:59.369Z,83.00
2018-07-01T14:29:28.437Z,82.80
2018-07-01T14:31:57.561Z,83.10
2018-07-01T14:34:26.725Z,83.40
2018-07-01T14:36:55.924Z,82.70
2018-07-01T14:39:25.085Z,81.60
2018-07-01T14:41:54.260Z,82.70
2018-07-01T14:44:23.421Z,81.60
2018-07-01T14:46:52.589Z,81.00
2018-07-01T14:49:21.755Z,80.10
2018-07-01T14:51:50.901Z,81.30
2018-07-01T14:54:20.050Z,82.10
2018-07-01T14:56:49.230Z,82.20
2018-07-01T14:59:18.372Z,82.80
2018-07-01T15:01:47.504Z,79.90
2018-07-01T15:04:16.653Z,78.50
2018-07-01T15:06:45.830Z,79.10
2018-07-01T15:09:14.977Z,78.30
2018-07-01T15:11:44.133Z,78.70
2018-07-01T15:14:13.281Z,80.80
2018-07-01T15:16:43.416Z,79.60
2018-07-01T15:19:12.571Z,79.00
2018-07-01T15:21:41.745Z,78.80
2018-07-01T15:24:10.920Z,77.70
2018-07-01T15:26:40.087Z,78.90
2018-07-01T15:29:09.238Z,78.50
2018-07-01T15:31:38.366Z,81.20
2018-07-01T15:34:07.520Z,80.30
2018-07-01T15:36:36.648Z,79.30
2018-07-01T15:39:08.203Z,79.00
2018-07-01T15:41:37.340Z,76.60
2018-07-01T15:44:06.499Z,75.20
2018-07-01T15:46:35.821Z,75.70
2018-07-01T15:49:04.964Z,76.30
2018-07-01T15:51:34.151Z,75.80
2018-07-01T15:54:03.309Z,75.10
2018-07-01T15:56:32.462Z,76.20
2018-07-01T15:59:01.612Z,76.00
2018-07-01T16:01:30.723Z,75.00
2018-07-01T16:03:59.894Z,75.90
2018-07-01T16:06:29.106Z,75.40
2018-07-01T16:08:58.239Z,73.00
2018-07-01T16:11:27.414Z,73.90
2018-07-01T16:13:56.550Z,71.20
2018-07-01T16:16:25.712Z,72.50
2018-07-01T16:18:54.817Z,75.00
2018-07-01T16:21:23.948Z,74.40
2018-07-01T16:23:53.071Z,73.40
2018-07-01T16:26:27.452Z,73.90
2018-07-01T16:28:59.376Z,74.20
2018-07-01T16:31:29.116Z,74.30
2018-07-01T16:33:58.292Z,72.40
2018-07-01T16:36:28.791Z,72.10
2018-07-01T16:38:57.972Z,73.00
2018-07-01T16:41:27.180Z,72.40
2018-07-01T16:43:56.609Z,69.90
2018-07-01T16:46:25.750Z,71.60
2018-07-01T16:48:54.872Z,68.80
2018-07-01T16:51:23.997Z,69.70
2018-07-01T16:53:53.180Z,68.60
2018-07-01T16:56:22.315Z,67.70
2018-07-01T16:58:51.460Z,70.30
2018-07-01T17:01:20.861Z,69.30
2018-07-01T17:03:49.993Z,69.50
2018-07-01T17:06:19.116Z,69.80
2018-07-01T17:08:48.228Z,70.30
2018-07-01T17:11:17.337Z,70.40
2018-07-01T17:13:46.482Z,71.30
2018-07-01T17:16:15.602Z,69.60
2018-07-01T17:18:44.751Z,70.30
2018-07-01T17:21:13.891Z,71.00
2018-07-01T17:23:43.025Z,70.50
2018-07-01T17:26:18.833Z,69.50
2018-07-01T17:28:47.943Z,70.50
2018-07-01T17:31:22.263Z,69.30
2018-07-01T17:33:51.357Z,69.10
2018-07-01T17:36:20.500Z,69.40
2018-07-01T17:38:49.611Z,69.10
2018-07-01T17:41:18.739Z,69.20
2018-07-01T17:43:47.865Z,68.80
2018-07-01T17:46:16.997Z,69.90
2018-07-01T17:48:46.108Z,68.60
2018-07-01T17:51:15.286Z,69.20
2018-07-01T17:53:51.246Z,71.20
2018-07-01T17:56:20.340Z,69.60
2018-07-01T17:58:49.452Z,69.40
2018-07-01T18:01:18.862Z,69.70
2018-07-01T18:03:48.280Z,71.30
2018-07-01T18:06:17.486Z,70.70
2018-07-01T18:08:46.575Z,71.20
2018-07-01T18:11:15.728Z,70.20
2018-07-01T18:13:44.884Z,70.00
2018-07-01T18:16:14.043Z,69.80
2018-07-01T18:18:43.243Z,70.10
2018-07-01T18:21:12.420Z,70.70
2018-07-01T18:24:11.116Z,71.60
2018-07-01T18:26:10.753Z,71.90
2018-07-01T18:28:52.292Z,71.60
2018-07-01T18:31:09.055Z,72.40
2018-07-01T18:33:38.175Z,72.90
2018-07-01T18:36:07.313Z,73.40
2018-07-01T18:38:36.484Z,73.40
2018-07-01T18:41:05.707Z,73.60
2018-07-01T18:43:34.811Z,73.70
2018-07-01T18:46:03.988Z,74.10
2018-07-01T18:48:33.121Z,73.90
2018-07-01T18:51:02.300Z,73.90
2018-07-01T18:53:31.418Z,74.20
2018-07-01T18:56:00.608Z,75.50
2018-07-01T18:58:29.782Z,76.00
2018-07-01T19:00:58.905Z,76.80
2018-07-01T19:03:28.038Z,78.10
2018-07-01T19:05:57.193Z,78.70
2018-07-01T19:08:26.308Z,80.10
2018-07-01T19:10:55.447Z,80.20
2018-07-01T19:13:24.555Z,80.50
2018-07-01T19:15:53.776Z,81.50
2018-07-01T19:18:22.905Z,82.10
2018-07-01T19:20:52.087Z,82.60
2018-07-01T19:23:21.295Z,82.90
2018-07-01T19:25:50.456Z,83.40
2018-07-01T19:28:19.613Z,83.90
2018-07-01T19:30:48.756Z,84.40
2018-07-01T19:33:17.890Z,85.50
2018-07-01T19:35:47.047Z,85.30
2018-07-01T19:38:16.204Z,85.50
2018-07-01T19:40:45.317Z,86.20
2018-07-01T19:43:14.597Z,86.60
2018-07-01T19:45:43.737Z,86.10
2018-07-01T19:48:13.060Z,86.50
2018-07-01T19:50:42.235Z,86.60
2018-07-01T19:53:11.328Z,87.10
2018-07-01T19:55:40.481Z,87.60
2018-07-01T19:58:09.748Z,88.10
2018-07-01T20:00:41.571Z,88.10
2018-07-01T20:03:10.732Z,89.30
2018-07-01T20:05:39.839Z,89.60
2018-07-01T20:08:09.061Z,89.50
2018-07-01T20:10:38.172Z,90.40
2018-07-01T20:13:07.288Z,90.40
2018-07-01T20:15:36.412Z,90.70
2018-07-01T20:18:05.548Z,90.90
2018-07-01T20:20:34.670Z,91.10
2018-07-01T20:23:03.797Z,91.00
2018-07-01T20:25:32.935Z,91.00
2018-07-01T20:28:02.116Z,91.20
2018-07-01T20:30:31.385Z,91.30
2018-07-01T20:33:00.620Z,91.60
2018-07-01T20:35:29.755Z,92.20
2018-07-01T20:37:58.906Z,92.50
2018-07-01T20:40:28.018Z,92.40
2018-07-01T20:42:57.156Z,92.40
2018-07-01T20:45:26.272Z,92.40
2018-07-01T20:47:55.409Z,93.20
2018-07-01T20:50:24.517Z,93.10
2018-07-01T20:52:53.639Z,92.60
2018-07-01T20:55:22.751Z,92.70
2018-07-01T20:57:51.890Z,92.70
2018-07-01T21:00:21.095Z,92.70
2018-07-01T21:02:50.274Z,92.90
2018-07-01T21:05:19.516Z,93.10
2018-07-01T21:07:48.623Z,93.40
2018-07-01T21:10:17.824Z,93.80
2018-07-01T21:12:46.923Z,94.10
2018-07-01T21:15:16.070Z,94.50
2018-07-01T21:17:45.229Z,95.00
2018-07-01T21:20:14.349Z,95.20
2018-07-01T21:22:43.495Z,95.40
2018-07-01T21:25:12.592Z,96.00
2018-07-01T21:27:41.763Z,97.10
2018-07-01T21:30:10.881Z,97.90
2018-07-01T21:32:40.028Z,99.00
2018-07-01T21:35:09.186Z,99.90
2018-07-01T21:37:38.414Z,99.90
2018-07-01T21:40:07.586Z,99.90
2018-07-01T21:42:36.752Z,99.90
2018-07-01T21:45:06.682Z,99.90
2018-07-01T21:47:35.823Z,99.90
2018-07-01T21:50:05.132Z,99.90
2018-07-01T21:52:34.252Z,99.90
2018-07-01T21:55:03.425Z,99.90
2018-07-01T21:57:32.563Z,99.90
2018-07-01T22:00:01.707Z,99.90
2018-07-01T22:02:30.875Z,99.90
2018-07-01T22:05:00.051Z,99.90
2018-07-01T22:07:29.187Z,99.90
2018-07-01T22:09:58.336Z,99.90
2018-07-01T22:12:38.652Z,99.90
2018-07-01T22:15:23.425Z,99.90
2018-07-01T22:17:52.640Z,99.90
2018-07-01T22:20:21.797Z,99.90
2018-07-01T22:22:50.924Z,99.90
2018-07-01T22:25:20.049Z,99.90
2018-07-01T22:27:49.220Z,99.90
2018-07-01T22:30:18.344Z,99.90
2018-07-01T22:32:47.476Z,99.90
2018-07-01T22:35:16.600Z,99.90
2018-07-01T22:37:45.728Z,99.90
2018-07-01T22:40:14.852Z,99.90
2018-07-01T22:42:43.988Z,99.90
2018-07-01T22:45:13.103Z,99.90
2018-07-01T22:47:42.229Z,99.90
2018-07-01T22:50:11.374Z,99.90
2018-07-01T22:52:40.479Z,99.90
2018-07-01T22:55:09.601Z,99.90
2018-07-01T22:57:38.759Z,99.90
2018-07-01T23:00:07.916Z,99.90
2018-07-01T23:02:49.121Z,99.90
2018-07-01T23:05:18.064Z,99.90
2018-07-01T23:07:47.225Z,99.90
2018-07-01T23:10:16.688Z,99.90
2018-07-01T23:12:45.821Z,99.90
2018-07-01T23:15:14.958Z,99.90
2018-07-01T23:17:44.119Z,99.90
2018-07-01T23:20:13.381Z,99.90
2018-07-01T23:22:42.556Z,99.90
2018-07-01T23:25:12.619Z,99.90
2018-07-01T23:27:42.387Z,99.90
2018-07-01T23:30:11.512Z,99.90
2018-07-01T23:32:40.928Z,99.90
2018-07-01T23:35:10.139Z,99.90
2018-07-01T23:37:39.636Z,99.90
2018-07-01T23:40:09.557Z,99.90
2018-07-01T23:42:39.188Z,99.90
2018-07-01T23:45:09.186Z,99.90
2018-07-01T23:47:38.329Z,99.90
2018-07-01T23:50:07.766Z,99.90
2018-07-01T23:52:36.990Z,99.90
2018-07-01T23:55:06.775Z,99.90
2018-07-01T23:57:35.905Z,99.90
